sensor_id;sensor_type;location;lat;lon;timestamp;temperature;humidity
5508;DHT22;2776;51.046;6.772;2023-06-14T00:01:37;18.90;95.20
5508;DHT22;2776;51.046;6.772;2023-06-14T00:04:04;18.90;97.50
5508;DHT22;2776;51.046;6.772;2023-06-14T00:06:32;18.80;99.90
5508;DHT22;2776;51.046;6.772;2023-06-14T00:09:00;18.60;99.90
5508;DHT22;2776;51.046;6.772;2023-06-14T00:11:27;18.50;99.90
5508;DHT22;2776;51.046;6.772;2023-06-14T00:13:55;18.40;99.90
5508;DHT22;2776;51.046;6.772;2023-06-14T00:16:21;18.40;99.90
5508;DHT22;2776;51.046;6.772;2023-06-14T00:18:48;18.20;99.90
5508;DHT22;2776;51.046;6.772;2023-06-14T00:21:17;18.10;99.90
5508;DHT22;2776;51.046;6.772;2023-06-14T00:23:46;18.00;99.90
5508;DHT22;2776;51.046;6.772;2023-06-14T00:26:12;17.80;99.90
5508;DHT22;2776;51.046;6.772;2023-06-14T00:28:39;17.70;99.90
5508;DHT22;2776;51.046;6.772;2023-06-14T00:31:06;17.60;99.90
5508;DHT22;2776;51.046;6.772;2023-06-14T00:33:33;17.50;99.90
5508;DHT22;2776;51.046;6.772;2023-06-14T00:36:00;17.40;99.90
5508;DHT22;2776;51.046;6.772;2023-06-14T00:38:26;17.30;99.90
5508;DHT22;2776;51.046;6.772;2023-06-14T00:40:54;17.40;99.90
5508;DHT22;2776;51.046;6.772;2023-06-14T00:43:21;17.30;99.90
5508;DHT22;2776;51.046;6.772;2023-06-14T00:45:48;17.30;99.90
5508;DHT22;2776;51.046;6.772;2023-06-14T00:48:17;17.30;99.90
5508;DHT22;2776;51.046;6.772;2023-06-14T00:50:44;17.20;99.90
5508;DHT22;2776;51.046;6.772;2023-06-14T00:53:14;17.10;99.90
5508;DHT22;2776;51.046;6.772;2023-06-14T00:55:42;17.10;99.90
5508;DHT22;2776;51.046;6.772;2023-06-14T00:58:11;17.10;99.90
5508;DHT22;2776;51.046;6.772;2023-06-14T01:00:38;17.10;99.90
5508;DHT22;2776;51.046;6.772;2023-06-14T01:03:04;17.00;99.90
5508;DHT22;2776;51.046;6.772;2023-06-14T01:05:31;17.00;99.90
5508;DHT22;2776;51.046;6.772;2023-06-14T01:08:11;17.00;99.90
5508;DHT22;2776;51.046;6.772;2023-06-14T01:10:46;17.00;99.90
5508;DHT22;2776;51.046;6.772;2023-06-14T01:13:20;17.00;99.90
5508;DHT22;2776;51.046;6.772;2023-06-14T01:15:49;17.00;99.90
5508;DHT22;2776;51.046;6.772;2023-06-14T01:18:17;16.90;99.90
5508;DHT22;2776;51.046;6.772;2023-06-14T01:20:45;16.70;99.90
5508;DHT22;2776;51.046;6.772;2023-06-14T01:23:16;16.70;99.90
5508;DHT22;2776;51.046;6.772;2023-06-14T01:25:43;16.60;99.90
5508;DHT22;2776;51.046;6.772;2023-06-14T01:28:10;16.50;99.90
5508;DHT22;2776;51.046;6.772;2023-06-14T01:30:39;16.40;99.90
5508;DHT22;2776;51.046;6.772;2023-06-14T01:33:11;16.40;99.90
5508;DHT22;2776;51.046;6.772;2023-06-14T01:35:38;16.40;99.90
5508;DHT22;2776;51.046;6.772;2023-06-14T01:38:06;16.30;99.90
5508;DHT22;2776;51.046;6.772;2023-06-14T01:40:34;16.20;99.90
5508;DHT22;2776;51.046;6.772;2023-06-14T01:43:02;16.10;99.90
5508;DHT22;2776;51.046;6.772;2023-06-14T01:45:30;16.10;99.90
5508;DHT22;2776;51.046;6.772;2023-06-14T01:47:58;16.00;99.90
5508;DHT22;2776;51.046;6.772;2023-06-14T01:50:28;16.00;99.90
5508;DHT22;2776;51.046;6.772;2023-06-14T01:52:55;15.90;99.90
5508;DHT22;2776;51.046;6.772;2023-06-14T01:55:21;15.90;99.90
5508;DHT22;2776;51.046;6.772;2023-06-14T01:57:51;16.00;99.90
5508;DHT22;2776;51.046;6.772;2023-06-14T02:00:18;15.90;99.90
5508;DHT22;2776;51.046;6.772;2023-06-14T02:02:46;15.90;99.90
5508;DHT22;2776;51.046;6.772;2023-06-14T02:05:14;15.90;99.90
5508;DHT22;2776;51.046;6.772;2023-06-14T02:07:44;15.80;99.90
5508;DHT22;2776;51.046;6.772;2023-06-14T02:10:11;15.70;99.90
5508;DHT22;2776;51.046;6.772;2023-06-14T02:12:38;15.60;99.90
5508;DHT22;2776;51.046;6.772;2023-06-14T02:15:07;15.50;99.90
5508;DHT22;2776;51.046;6.772;2023-06-14T02:17:34;15.40;99.90
5508;DHT22;2776;51.046;6.772;2023-06-14T02:20:01;15.20;99.90
5508;DHT22;2776;51.046;6.772;2023-06-14T02:22:28;15.30;99.90
5508;DHT22;2776;51.046;6.772;2023-06-14T02:24:55;15.30;99.90
5508;DHT22;2776;51.046;6.772;2023-06-14T02:27:22;15.30;99.90
5508;DHT22;2776;51.046;6.772;2023-06-14T02:29:48;15.20;99.90
5508;DHT22;2776;51.046;6.772;2023-06-14T02:32:16;15.20;99.90
5508;DHT22;2776;51.046;6.772;2023-06-14T02:34:43;15.10;99.90
5508;DHT22;2776;51.046;6.772;2023-06-14T02:37:10;15.10;99.90
5508;DHT22;2776;51.046;6.772;2023-06-14T02:39:38;15.10;99.90
5508;DHT22;2776;51.046;6.772;2023-06-14T02:42:06;15.00;99.90
5508;DHT22;2776;51.046;6.772;2023-06-14T02:44:33;14.90;99.90
5508;DHT22;2776;51.046;6.772;2023-06-14T02:47:00;14.90;99.90
5508;DHT22;2776;51.046;6.772;2023-06-14T02:49:28;14.90;99.90
5508;DHT22;2776;51.046;6.772;2023-06-14T02:51:56;14.90;99.90
5508;DHT22;2776;51.046;6.772;2023-06-14T02:54:22;14.80;99.90
5508;DHT22;2776;51.046;6.772;2023-06-14T02:56:49;14.70;99.90
5508;DHT22;2776;51.046;6.772;2023-06-14T02:59:16;14.70;99.90
5508;DHT22;2776;51.046;6.772;2023-06-14T03:01:44;14.70;99.90
5508;DHT22;2776;51.046;6.772;2023-06-14T03:04:11;14.70;99.90
5508;DHT22;2776;51.046;6.772;2023-06-14T03:06:39;14.70;99.90
5508;DHT22;2776;51.046;6.772;2023-06-14T03:09:06;14.60;99.90
5508;DHT22;2776;51.046;6.772;2023-06-14T03:11:34;14.70;99.90
5508;DHT22;2776;51.046;6.772;2023-06-14T03:14:02;14.70;99.90
5508;DHT22;2776;51.046;6.772;2023-06-14T03:16:29;14.70;99.90
5508;DHT22;2776;51.046;6.772;2023-06-14T03:18:57;14.70;99.90
5508;DHT22;2776;51.046;6.772;2023-06-14T03:21:23;14.70;99.90
5508;DHT22;2776;51.046;6.772;2023-06-14T03:23:51;14.60;99.90
5508;DHT22;2776;51.046;6.772;2023-06-14T03:26:18;14.60;99.90
5508;DHT22;2776;51.046;6.772;2023-06-14T03:28:45;14.50;99.90
5508;DHT22;2776;51.046;6.772;2023-06-14T03:31:13;14.50;99.90
5508;DHT22;2776;51.046;6.772;2023-06-14T03:33:40;14.40;99.90
5508;DHT22;2776;51.046;6.772;2023-06-14T03:36:07;14.40;99.90
5508;DHT22;2776;51.046;6.772;2023-06-14T03:38:34;14.40;99.90
5508;DHT22;2776;51.046;6.772;2023-06-14T03:41:02;14.50;99.90
5508;DHT22;2776;51.046;6.772;2023-06-14T03:43:29;14.50;99.90
5508;DHT22;2776;51.046;6.772;2023-06-14T03:45:56;14.50;99.90
5508;DHT22;2776;51.046;6.772;2023-06-14T03:48:23;14.50;99.90
5508;DHT22;2776;51.046;6.772;2023-06-14T03:50:50;14.60;99.90
5508;DHT22;2776;51.046;6.772;2023-06-14T03:53:16;14.70;99.90
5508;DHT22;2776;51.046;6.772;2023-06-14T03:55:45;14.70;99.90
5508;DHT22;2776;51.046;6.772;2023-06-14T03:58:15;14.60;99.90
5508;DHT22;2776;51.046;6.772;2023-06-14T04:00:42;14.70;99.90
5508;DHT22;2776;51.046;6.772;2023-06-14T04:03:08;14.70;99.90
5508;DHT22;2776;51.046;6.772;2023-06-14T04:05:35;14.80;99.90
5508;DHT22;2776;51.046;6.772;2023-06-14T04:08:02;14.90;99.90
5508;DHT22;2776;51.046;6.772;2023-06-14T04:10:29;14.90;99.90
5508;DHT22;2776;51.046;6.772;2023-06-14T04:12:56;14.90;99.90
5508;DHT22;2776;51.046;6.772;2023-06-14T04:15:24;15.00;99.90
5508;DHT22;2776;51.046;6.772;2023-06-14T04:17:53;15.00;99.90
5508;DHT22;2776;51.046;6.772;2023-06-14T04:20:22;15.10;99.90
5508;DHT22;2776;51.046;6.772;2023-06-14T04:22:50;15.10;99.90
5508;DHT22;2776;51.046;6.772;2023-06-14T04:25:18;15.20;99.90
5508;DHT22;2776;51.046;6.772;2023-06-14T04:27:44;15.20;99.90
5508;DHT22;2776;51.046;6.772;2023-06-14T04:30:12;15.30;99.90
5508;DHT22;2776;51.046;6.772;2023-06-14T04:32:41;15.50;99.90
5508;DHT22;2776;51.046;6.772;2023-06-14T04:35:08;15.60;99.90
5508;DHT22;2776;51.046;6.772;2023-06-14T04:37:36;15.70;99.90
5508;DHT22;2776;51.046;6.772;2023-06-14T04:40:06;15.80;99.90
5508;DHT22;2776;51.046;6.772;2023-06-14T04:42:33;15.90;99.90
5508;DHT22;2776;51.046;6.772;2023-06-14T04:45:02;15.90;99.90
5508;DHT22;2776;51.046;6.772;2023-06-14T04:47:29;16.10;99.90
5508;DHT22;2776;51.046;6.772;2023-06-14T04:49:58;16.30;99.90
5508;DHT22;2776;51.046;6.772;2023-06-14T04:52:25;16.30;99.90
5508;DHT22;2776;51.046;6.772;2023-06-14T04:54:55;16.50;99.90
5508;DHT22;2776;51.046;6.772;2023-06-14T04:57:22;16.50;99.90
5508;DHT22;2776;51.046;6.772;2023-06-14T04:59:50;16.70;99.90
5508;DHT22;2776;51.046;6.772;2023-06-14T05:02:21;16.90;99.90
5508;DHT22;2776;51.046;6.772;2023-06-14T05:04:48;17.00;99.90
5508;DHT22;2776;51.046;6.772;2023-06-14T05:07:16;17.20;99.90
5508;DHT22;2776;51.046;6.772;2023-06-14T05:09:44;17.30;99.90
5508;DHT22;2776;51.046;6.772;2023-06-14T05:12:10;17.40;99.90
5508;DHT22;2776;51.046;6.772;2023-06-14T05:14:37;17.50;99.90
5508;DHT22;2776;51.046;6.772;2023-06-14T05:17:05;17.70;99.90
5508;DHT22;2776;51.046;6.772;2023-06-14T05:19:32;17.80;99.90
5508;DHT22;2776;51.046;6.772;2023-06-14T05:21:59;18.20;99.90
5508;DHT22;2776;51.046;6.772;2023-06-14T05:24:27;19.10;99.90
5508;DHT22;2776;51.046;6.772;2023-06-14T05:26:55;20.80;99.90
5508;DHT22;2776;51.046;6.772;2023-06-14T05:29:21;22.30;99.30
5508;DHT22;2776;51.046;6.772;2023-06-14T05:31:48;23.60;91.70
5508;DHT22;2776;51.046;6.772;2023-06-14T05:34:15;25.00;84.50
5508;DHT22;2776;51.046;6.772;2023-06-14T05:36:42;26.00;61.00
5508;DHT22;2776;51.046;6.772;2023-06-14T05:39:08;26.40;52.20
5508;DHT22;2776;51.046;6.772;2023-06-14T05:41:37;26.60;46.40
5508;DHT22;2776;51.046;6.772;2023-06-14T05:44:04;27.00;46.10
5508;DHT22;2776;51.046;6.772;2023-06-14T05:46:30;27.50;43.30
5508;DHT22;2776;51.046;6.772;2023-06-14T05:48:57;27.80;43.60
5508;DHT22;2776;51.046;6.772;2023-06-14T05:51:24;28.30;41.90
5508;DHT22;2776;51.046;6.772;2023-06-14T05:53:52;28.40;39.60
5508;DHT22;2776;51.046;6.772;2023-06-14T05:56:18;28.10;37.30
5508;DHT22;2776;51.046;6.772;2023-06-14T05:58:47;27.40;40.10
5508;DHT22;2776;51.046;6.772;2023-06-14T06:01:14;27.10;39.30
5508;DHT22;2776;51.046;6.772;2023-06-14T06:03:41;26.70;38.70
5508;DHT22;2776;51.046;6.772;2023-06-14T06:06:11;26.10;39.10
5508;DHT22;2776;51.046;6.772;2023-06-14T06:08:38;25.70;40.90
5508;DHT22;2776;51.046;6.772;2023-06-14T06:11:06;25.50;41.20
5508;DHT22;2776;51.046;6.772;2023-06-14T06:13:32;25.20;42.80
5508;DHT22;2776;51.046;6.772;2023-06-14T06:16:02;25.00;42.20
5508;DHT22;2776;51.046;6.772;2023-06-14T06:18:28;24.50;43.30
5508;DHT22;2776;51.046;6.772;2023-06-14T06:20:55;24.50;42.60
5508;DHT22;2776;51.046;6.772;2023-06-14T06:23:22;24.30;44.30
5508;DHT22;2776;51.046;6.772;2023-06-14T06:25:48;24.10;44.30
5508;DHT22;2776;51.046;6.772;2023-06-14T06:28:15;23.80;46.00
5508;DHT22;2776;51.046;6.772;2023-06-14T06:30:42;23.70;46.30
5508;DHT22;2776;51.046;6.772;2023-06-14T06:33:10;23.60;46.30
5508;DHT22;2776;51.046;6.772;2023-06-14T06:35:37;23.60;46.90
5508;DHT22;2776;51.046;6.772;2023-06-14T06:38:04;23.50;45.10
5508;DHT22;2776;51.046;6.772;2023-06-14T06:40:31;23.40;45.30
5508;DHT22;2776;51.046;6.772;2023-06-14T06:42:57;23.40;46.30
5508;DHT22;2776;51.046;6.772;2023-06-14T06:45:24;23.40;45.30
5508;DHT22;2776;51.046;6.772;2023-06-14T06:47:51;23.40;45.90
5508;DHT22;2776;51.046;6.772;2023-06-14T06:50:19;23.50;47.70
5508;DHT22;2776;51.046;6.772;2023-06-14T06:52:48;23.40;46.60
5508;DHT22;2776;51.046;6.772;2023-06-14T06:55:15;23.40;45.90
5508;DHT22;2776;51.046;6.772;2023-06-14T06:57:43;23.10;47.10
5508;DHT22;2776;51.046;6.772;2023-06-14T07:00:11;23.10;47.80
5508;DHT22;2776;51.046;6.772;2023-06-14T07:02:38;23.20;47.90
5508;DHT22;2776;51.046;6.772;2023-06-14T07:05:05;23.40;48.10
5508;DHT22;2776;51.046;6.772;2023-06-14T07:07:34;23.50;47.40
5508;DHT22;2776;51.046;6.772;2023-06-14T07:10:00;23.50;47.90
5508;DHT22;2776;51.046;6.772;2023-06-14T07:12:30;23.60;47.40
5508;DHT22;2776;51.046;6.772;2023-06-14T07:14:57;23.60;47.00
5508;DHT22;2776;51.046;6.772;2023-06-14T07:17:23;23.90;47.40
5508;DHT22;2776;51.046;6.772;2023-06-14T07:19:50;24.30;44.90
5508;DHT22;2776;51.046;6.772;2023-06-14T07:22:18;24.50;43.20
5508;DHT22;2776;51.046;6.772;2023-06-14T07:24:47;25.10;43.60
5508;DHT22;2776;51.046;6.772;2023-06-14T07:27:13;25.90;41.60
5508;DHT22;2776;51.046;6.772;2023-06-14T07:29:40;26.20;40.00
5508;DHT22;2776;51.046;6.772;2023-06-14T07:32:07;26.80;39.20
5508;DHT22;2776;51.046;6.772;2023-06-14T07:34:34;27.00;38.20
5508;DHT22;2776;51.046;6.772;2023-06-14T07:37:00;26.70;37.20
5508;DHT22;2776;51.046;6.772;2023-06-14T07:39:27;26.40;39.20
5508;DHT22;2776;51.046;6.772;2023-06-14T07:41:56;26.10;40.30
5508;DHT22;2776;51.046;6.772;2023-06-14T07:44:22;25.70;38.90
5508;DHT22;2776;51.046;6.772;2023-06-14T07:46:49;25.40;39.40
5508;DHT22;2776;51.046;6.772;2023-06-14T07:49:16;25.10;39.90
5508;DHT22;2776;51.046;6.772;2023-06-14T07:51:43;25.00;40.70
5508;DHT22;2776;51.046;6.772;2023-06-14T07:54:11;24.90;41.00
5508;DHT22;2776;51.046;6.772;2023-06-14T07:56:38;24.70;40.40
5508;DHT22;2776;51.046;6.772;2023-06-14T07:59:06;24.60;41.50
5508;DHT22;2776;51.046;6.772;2023-06-14T08:01:34;24.50;39.30
5508;DHT22;2776;51.046;6.772;2023-06-14T08:04:01;24.40;38.40
5508;DHT22;2776;51.046;6.772;2023-06-14T08:06:28;24.50;36.50
5508;DHT22;2776;51.046;6.772;2023-06-14T08:08:55;24.50;37.50
5508;DHT22;2776;51.046;6.772;2023-06-14T08:11:22;24.40;36.70
5508;DHT22;2776;51.046;6.772;2023-06-14T08:13:50;24.30;36.20
5508;DHT22;2776;51.046;6.772;2023-06-14T08:16:18;24.20;35.30
5508;DHT22;2776;51.046;6.772;2023-06-14T08:18:45;24.20;35.70
5508;DHT22;2776;51.046;6.772;2023-06-14T08:21:12;24.20;34.60
5508;DHT22;2776;51.046;6.772;2023-06-14T08:23:40;24.10;32.90
5508;DHT22;2776;51.046;6.772;2023-06-14T08:26:08;24.20;32.60
5508;DHT22;2776;51.046;6.772;2023-06-14T08:28:35;24.30;32.00
5508;DHT22;2776;51.046;6.772;2023-06-14T08:31:01;24.40;32.50
5508;DHT22;2776;51.046;6.772;2023-06-14T08:33:30;24.60;33.00
5508;DHT22;2776;51.046;6.772;2023-06-14T08:35:58;24.80;32.40
5508;DHT22;2776;51.046;6.772;2023-06-14T08:38:25;24.80;30.90
5508;DHT22;2776;51.046;6.772;2023-06-14T08:40:52;24.80;31.90
5508;DHT22;2776;51.046;6.772;2023-06-14T08:43:23;24.80;31.70
5508;DHT22;2776;51.046;6.772;2023-06-14T08:45:53;24.70;32.50
5508;DHT22;2776;51.046;6.772;2023-06-14T08:48:22;24.50;31.60
5508;DHT22;2776;51.046;6.772;2023-06-14T08:50:54;24.40;32.60
5508;DHT22;2776;51.046;6.772;2023-06-14T08:53:28;24.40;33.10
5508;DHT22;2776;51.046;6.772;2023-06-14T08:55:57;24.40;33.00
5508;DHT22;2776;51.046;6.772;2023-06-14T08:58:27;24.50;33.00
5508;DHT22;2776;51.046;6.772;2023-06-14T09:00:55;24.60;32.00
5508;DHT22;2776;51.046;6.772;2023-06-14T09:03:21;24.50;32.00
5508;DHT22;2776;51.046;6.772;2023-06-14T09:05:57;24.60;32.10
5508;DHT22;2776;51.046;6.772;2023-06-14T09:08:24;24.60;32.20
5508;DHT22;2776;51.046;6.772;2023-06-14T09:10:51;24.50;31.60
5508;DHT22;2776;51.046;6.772;2023-06-14T09:13:18;24.40;31.80
5508;DHT22;2776;51.046;6.772;2023-06-14T09:15:45;24.50;32.10
5508;DHT22;2776;51.046;6.772;2023-06-14T09:18:11;24.60;31.70
5508;DHT22;2776;51.046;6.772;2023-06-14T09:20:38;24.70;32.40
5508;DHT22;2776;51.046;6.772;2023-06-14T09:23:06;24.80;32.90
5508;DHT22;2776;51.046;6.772;2023-06-14T09:25:41;24.80;33.00
5508;DHT22;2776;51.046;6.772;2023-06-14T09:28:09;25.00;33.50
5508;DHT22;2776;51.046;6.772;2023-06-14T09:30:37;25.20;33.30
5508;DHT22;2776;51.046;6.772;2023-06-14T09:33:03;25.40;32.90
5508;DHT22;2776;51.046;6.772;2023-06-14T09:35:31;25.30;32.50
5508;DHT22;2776;51.046;6.772;2023-06-14T09:37:58;25.30;32.80
5508;DHT22;2776;51.046;6.772;2023-06-14T09:40:26;25.20;33.20
5508;DHT22;2776;51.046;6.772;2023-06-14T09:42:53;25.10;32.50
5508;DHT22;2776;51.046;6.772;2023-06-14T09:45:23;25.00;32.00
5508;DHT22;2776;51.046;6.772;2023-06-14T09:47:50;24.80;32.60
5508;DHT22;2776;51.046;6.772;2023-06-14T09:50:17;24.70;32.90
5508;DHT22;2776;51.046;6.772;2023-06-14T09:52:44;24.40;34.00
5508;DHT22;2776;51.046;6.772;2023-06-14T09:55:14;24.50;34.80
5508;DHT22;2776;51.046;6.772;2023-06-14T09:57:45;24.40;34.40
5508;DHT22;2776;51.046;6.772;2023-06-14T10:00:15;24.40;36.10
5508;DHT22;2776;51.046;6.772;2023-06-14T10:02:45;24.30;37.80
5508;DHT22;2776;51.046;6.772;2023-06-14T10:05:17;24.40;36.80
5508;DHT22;2776;51.046;6.772;2023-06-14T10:07:50;24.40;37.60
5508;DHT22;2776;51.046;6.772;2023-06-14T10:10:19;24.50;38.10
5508;DHT22;2776;51.046;6.772;2023-06-14T10:12:47;24.60;37.80
5508;DHT22;2776;51.046;6.772;2023-06-14T10:15:19;24.60;39.70
5508;DHT22;2776;51.046;6.772;2023-06-14T10:17:50;24.60;38.60
5508;DHT22;2776;51.046;6.772;2023-06-14T10:20:27;24.50;38.50
5508;DHT22;2776;51.046;6.772;2023-06-14T10:23:00;24.40;38.10
5508;DHT22;2776;51.046;6.772;2023-06-14T10:25:28;24.40;38.00
5508;DHT22;2776;51.046;6.772;2023-06-14T10:28:17;24.40;37.40
5508;DHT22;2776;51.046;6.772;2023-06-14T10:31:03;24.40;36.70
5508;DHT22;2776;51.046;6.772;2023-06-14T10:33:30;24.40;36.00
5508;DHT22;2776;51.046;6.772;2023-06-14T10:36:25;24.40;37.00
5508;DHT22;2776;51.046;6.772;2023-06-14T10:39:04;24.40;36.00
5508;DHT22;2776;51.046;6.772;2023-06-14T10:41:35;24.30;36.60
5508;DHT22;2776;51.046;6.772;2023-06-14T10:44:40;24.30;37.70
5508;DHT22;2776;51.046;6.772;2023-06-14T10:47:09;24.40;37.80
5508;DHT22;2776;51.046;6.772;2023-06-14T10:49:38;24.40;38.30
5508;DHT22;2776;51.046;6.772;2023-06-14T10:52:08;24.40;38.80
5508;DHT22;2776;51.046;6.772;2023-06-14T10:55:05;24.40;38.40
5508;DHT22;2776;51.046;6.772;2023-06-14T10:57:35;24.40;39.10
5508;DHT22;2776;51.046;6.772;2023-06-14T11:00:03;24.50;39.30
5508;DHT22;2776;51.046;6.772;2023-06-14T11:05:51;24.50;39.80
5508;DHT22;2776;51.046;6.772;2023-06-14T11:08:36;24.40;38.80
5508;DHT22;2776;51.046;6.772;2023-06-14T11:11:06;24.30;39.90
5508;DHT22;2776;51.046;6.772;2023-06-14T11:13:34;24.40;40.40
5508;DHT22;2776;51.046;6.772;2023-06-14T11:16:10;24.60;41.50
5508;DHT22;2776;51.046;6.772;2023-06-14T11:18:37;24.70;41.10
5508;DHT22;2776;51.046;6.772;2023-06-14T11:21:04;24.90;41.20
5508;DHT22;2776;51.046;6.772;2023-06-14T11:23:30;24.90;41.40
5508;DHT22;2776;51.046;6.772;2023-06-14T11:25:57;25.00;41.30
5508;DHT22;2776;51.046;6.772;2023-06-14T11:28:24;25.00;40.60
5508;DHT22;2776;51.046;6.772;2023-06-14T11:30:59;24.90;39.80
5508;DHT22;2776;51.046;6.772;2023-06-14T11:33:27;25.00;40.80
5508;DHT22;2776;51.046;6.772;2023-06-14T11:35:54;25.00;40.70
5508;DHT22;2776;51.046;6.772;2023-06-14T11:38:21;25.00;40.60
5508;DHT22;2776;51.046;6.772;2023-06-14T11:40:48;25.10;40.90
5508;DHT22;2776;51.046;6.772;2023-06-14T11:43:14;25.10;40.90
5508;DHT22;2776;51.046;6.772;2023-06-14T11:45:42;25.30;41.60
5508;DHT22;2776;51.046;6.772;2023-06-14T11:48:08;25.40;40.20
5508;DHT22;2776;51.046;6.772;2023-06-14T11:50:38;25.40;39.50
5508;DHT22;2776;51.046;6.772;2023-06-14T11:53:05;25.30;38.90
5508;DHT22;2776;51.046;6.772;2023-06-14T11:55:36;25.20;39.10
5508;DHT22;2776;51.046;6.772;2023-06-14T11:58:03;25.10;39.70
5508;DHT22;2776;51.046;6.772;2023-06-14T12:00:30;25.10;41.00
5508;DHT22;2776;51.046;6.772;2023-06-14T12:02:57;25.30;39.70
5508;DHT22;2776;51.046;6.772;2023-06-14T12:05:25;25.30;39.20
5508;DHT22;2776;51.046;6.772;2023-06-14T12:07:58;25.40;39.30
5508;DHT22;2776;51.046;6.772;2023-06-14T12:10:25;25.40;38.30
5508;DHT22;2776;51.046;6.772;2023-06-14T12:12:57;25.50;37.90
5508;DHT22;2776;51.046;6.772;2023-06-14T12:15:24;25.50;39.60
5508;DHT22;2776;51.046;6.772;2023-06-14T12:17:50;25.60;39.20
5508;DHT22;2776;51.046;6.772;2023-06-14T12:20:18;25.70;38.00
5508;DHT22;2776;51.046;6.772;2023-06-14T12:22:51;25.80;38.90
5508;DHT22;2776;51.046;6.772;2023-06-14T12:25:28;25.90;36.80
5508;DHT22;2776;51.046;6.772;2023-06-14T12:27:57;25.90;36.80
5508;DHT22;2776;51.046;6.772;2023-06-14T12:30:24;25.90;37.30
5508;DHT22;2776;51.046;6.772;2023-06-14T12:32:51;26.00;36.90
5508;DHT22;2776;51.046;6.772;2023-06-14T12:35:18;26.00;37.60
5508;DHT22;2776;51.046;6.772;2023-06-14T12:37:45;26.00;37.90
5508;DHT22;2776;51.046;6.772;2023-06-14T12:40:13;26.00;36.90
5508;DHT22;2776;51.046;6.772;2023-06-14T12:42:41;25.90;36.00
5508;DHT22;2776;51.046;6.772;2023-06-14T12:45:09;25.90;36.00
5508;DHT22;2776;51.046;6.772;2023-06-14T12:47:36;26.00;36.20
5508;DHT22;2776;51.046;6.772;2023-06-14T12:50:04;26.00;35.80
5508;DHT22;2776;51.046;6.772;2023-06-14T12:52:30;26.00;34.20
5508;DHT22;2776;51.046;6.772;2023-06-14T12:55:01;25.90;35.40
5508;DHT22;2776;51.046;6.772;2023-06-14T12:57:28;25.90;34.70
5508;DHT22;2776;51.046;6.772;2023-06-14T12:59:56;26.00;37.50
5508;DHT22;2776;51.046;6.772;2023-06-14T13:02:23;26.10;35.70
5508;DHT22;2776;51.046;6.772;2023-06-14T13:04:51;26.10;33.80
5508;DHT22;2776;51.046;6.772;2023-06-14T13:07:17;26.30;34.30
5508;DHT22;2776;51.046;6.772;2023-06-14T13:09:44;26.20;35.20
5508;DHT22;2776;51.046;6.772;2023-06-14T13:12:11;26.30;34.70
5508;DHT22;2776;51.046;6.772;2023-06-14T13:14:38;26.30;33.50
5508;DHT22;2776;51.046;6.772;2023-06-14T13:17:08;26.40;33.50
5508;DHT22;2776;51.046;6.772;2023-06-14T13:19:35;26.50;32.80
5508;DHT22;2776;51.046;6.772;2023-06-14T13:22:02;26.50;32.40
5508;DHT22;2776;51.046;6.772;2023-06-14T13:24:29;26.60;32.70
5508;DHT22;2776;51.046;6.772;2023-06-14T13:26:56;26.60;31.50
5508;DHT22;2776;51.046;6.772;2023-06-14T13:29:23;26.40;30.40
5508;DHT22;2776;51.046;6.772;2023-06-14T13:31:50;26.50;30.80
5508;DHT22;2776;51.046;6.772;2023-06-14T13:34:18;26.40;30.20
5508;DHT22;2776;51.046;6.772;2023-06-14T13:36:46;26.30;31.90
5508;DHT22;2776;51.046;6.772;2023-06-14T13:39:13;26.30;31.50
5508;DHT22;2776;51.046;6.772;2023-06-14T13:41:40;26.40;31.30
5508;DHT22;2776;51.046;6.772;2023-06-14T13:44:06;26.50;33.10
5508;DHT22;2776;51.046;6.772;2023-06-14T13:46:33;26.60;32.20
5508;DHT22;2776;51.046;6.772;2023-06-14T13:49:00;26.60;31.30
5508;DHT22;2776;51.046;6.772;2023-06-14T13:51:28;26.60;31.20
5508;DHT22;2776;51.046;6.772;2023-06-14T13:53:55;26.60;31.10
5508;DHT22;2776;51.046;6.772;2023-06-14T13:56:22;26.60;31.90
5508;DHT22;2776;51.046;6.772;2023-06-14T13:58:49;26.60;31.60
5508;DHT22;2776;51.046;6.772;2023-06-14T14:01:16;26.60;31.40
5508;DHT22;2776;51.046;6.772;2023-06-14T14:03:45;26.50;31.80
5508;DHT22;2776;51.046;6.772;2023-06-14T14:06:12;26.50;31.90
5508;DHT22;2776;51.046;6.772;2023-06-14T14:08:40;26.40;32.40
5508;DHT22;2776;51.046;6.772;2023-06-14T14:11:07;26.40;31.30
5508;DHT22;2776;51.046;6.772;2023-06-14T14:13:34;26.50;31.90
5508;DHT22;2776;51.046;6.772;2023-06-14T14:16:01;26.50;31.90
5508;DHT22;2776;51.046;6.772;2023-06-14T14:18:28;26.50;32.90
5508;DHT22;2776;51.046;6.772;2023-06-14T14:20:56;26.60;32.90
5508;DHT22;2776;51.046;6.772;2023-06-14T14:23:23;26.50;32.10
5508;DHT22;2776;51.046;6.772;2023-06-14T14:25:52;26.60;31.80
5508;DHT22;2776;51.046;6.772;2023-06-14T14:28:18;26.60;31.60
5508;DHT22;2776;51.046;6.772;2023-06-14T14:30:46;26.60;32.90
5508;DHT22;2776;51.046;6.772;2023-06-14T14:33:13;26.70;31.60
5508;DHT22;2776;51.046;6.772;2023-06-14T14:35:41;26.70;33.40
5508;DHT22;2776;51.046;6.772;2023-06-14T14:38:08;26.60;32.00
5508;DHT22;2776;51.046;6.772;2023-06-14T14:40:35;26.70;31.40
5508;DHT22;2776;51.046;6.772;2023-06-14T14:43:03;26.60;29.80
5508;DHT22;2776;51.046;6.772;2023-06-14T14:45:30;26.70;31.20
5508;DHT22;2776;51.046;6.772;2023-06-14T14:47:57;26.70;32.10
5508;DHT22;2776;51.046;6.772;2023-06-14T14:50:25;26.70;32.80
5508;DHT22;2776;51.046;6.772;2023-06-14T14:52:52;26.70;32.90
5508;DHT22;2776;51.046;6.772;2023-06-14T14:55:19;26.70;32.60
5508;DHT22;2776;51.046;6.772;2023-06-14T14:57:46;26.60;32.90
5508;DHT22;2776;51.046;6.772;2023-06-14T15:00:15;26.50;32.40
5508;DHT22;2776;51.046;6.772;2023-06-14T15:02:42;26.40;33.10
5508;DHT22;2776;51.046;6.772;2023-06-14T15:05:09;26.30;32.10
5508;DHT22;2776;51.046;6.772;2023-06-14T15:07:36;26.20;31.90
5508;DHT22;2776;51.046;6.772;2023-06-14T15:10:06;26.20;32.60
5508;DHT22;2776;51.046;6.772;2023-06-14T15:12:34;26.30;32.00
5508;DHT22;2776;51.046;6.772;2023-06-14T15:15:01;26.20;33.20
5508;DHT22;2776;51.046;6.772;2023-06-14T15:17:29;26.30;34.20
5508;DHT22;2776;51.046;6.772;2023-06-14T15:19:56;26.30;34.30
5508;DHT22;2776;51.046;6.772;2023-06-14T15:22:23;26.20;32.80
5508;DHT22;2776;51.046;6.772;2023-06-14T15:24:50;26.20;33.90
5508;DHT22;2776;51.046;6.772;2023-06-14T15:27:16;26.10;33.40
5508;DHT22;2776;51.046;6.772;2023-06-14T15:29:43;26.00;32.90
5508;DHT22;2776;51.046;6.772;2023-06-14T15:32:11;25.90;32.80
5508;DHT22;2776;51.046;6.772;2023-06-14T15:34:39;25.70;33.00
5508;DHT22;2776;51.046;6.772;2023-06-14T15:37:06;25.70;33.20
5508;DHT22;2776;51.046;6.772;2023-06-14T15:39:32;25.70;34.00
5508;DHT22;2776;51.046;6.772;2023-06-14T15:41:59;25.80;33.90
5508;DHT22;2776;51.046;6.772;2023-06-14T15:44:26;25.90;34.60
5508;DHT22;2776;51.046;6.772;2023-06-14T15:46:53;25.90;34.40
5508;DHT22;2776;51.046;6.772;2023-06-14T15:49:20;26.10;33.80
5508;DHT22;2776;51.046;6.772;2023-06-14T15:51:48;26.00;33.10
5508;DHT22;2776;51.046;6.772;2023-06-14T15:54:15;26.00;33.80
5508;DHT22;2776;51.046;6.772;2023-06-14T15:56:41;25.90;33.90
5508;DHT22;2776;51.046;6.772;2023-06-14T15:59:08;25.90;34.50
5508;DHT22;2776;51.046;6.772;2023-06-14T16:01:35;25.70;33.70
5508;DHT22;2776;51.046;6.772;2023-06-14T16:04:02;25.70;33.20
5508;DHT22;2776;51.046;6.772;2023-06-14T16:06:28;25.60;33.90
5508;DHT22;2776;51.046;6.772;2023-06-14T16:08:56;25.70;33.30
5508;DHT22;2776;51.046;6.772;2023-06-14T16:11:23;25.80;33.20